createdAt,value
2022-07-30T00:00:24.859Z,95979.44
2022-07-30T00:02:52.890Z,95988.03
2022-07-30T00:05:20.251Z,95992.25
2022-07-30T00:07:47.712Z,95992.88
2022-07-30T00:10:14.949Z,95992.41
2022-07-30T00:12:42.196Z,95994.75
2022-07-30T00:15:09.809Z,95990.09
2022-07-30T00:17:37.136Z,95993.97
2022-07-30T00:20:04.729Z,95985.66
2022-07-30T00:22:32.290Z,95980.97
2022-07-30T00:24:59.549Z,95972.34
2022-07-30T00:27:26.750Z,95963.59
2022-07-30T00:29:53.829Z,95967.03
2022-07-30T00:32:21.029Z,95969.84
2022-07-30T00:34:48.190Z,95971.88
2022-07-30T00:37:15.268Z,95963.88
2022-07-30T00:39:42.791Z,95971.72
2022-07-30T00:42:09.888Z,95977.69
2022-07-30T00:44:37.188Z,95975.97
2022-07-30T00:47:08.340Z,95969.66
2022-07-30T00:49:35.448Z,95965.94
2022-07-30T00:52:02.597Z,95967.19
2022-07-30T00:54:29.737Z,95963.28
2022-07-30T00:56:57.090Z,95960.63
2022-07-30T00:59:24.348Z,95963.28
2022-07-30T01:01:51.589Z,95966.13
2022-07-30T01:04:18.748Z,95983.00
2022-07-30T01:06:45.868Z,95989.91
2022-07-30T01:09:13.209Z,95992.34
2022-07-30T01:11:42.648Z,95993.63
2022-07-30T01:14:10.115Z,95982.56
2022-07-30T01:16:39.085Z,95984.13
2022-07-30T01:19:32.552Z,95972.56
2022-07-30T01:22:30.278Z,95972.78
2022-07-30T01:25:20.228Z,95970.16
2022-07-30T01:28:10.668Z,95960.78
2022-07-30T01:30:43.408Z,95949.34
2022-07-30T01:33:14.854Z,95947.91
2022-07-30T01:35:45.368Z,95939.63
2022-07-30T01:38:16.808Z,95952.00
2022-07-30T01:40:46.075Z,95956.88
2022-07-30T01:43:14.168Z,95955.78
2022-07-30T01:45:44.401Z,95960.31
2022-07-30T01:48:15.197Z,95945.75
2022-07-30T01:50:48.295Z,95939.31
2022-07-30T01:53:18.547Z,95937.44
2022-07-30T01:55:46.849Z,95939.94
2022-07-30T01:58:16.827Z,95934.13
2022-07-30T02:00:48.362Z,95944.00
2022-07-30T02:03:15.577Z,95936.03
2022-07-30T02:05:50.015Z,95928.84
2022-07-30T02:08:24.467Z,95936.34
2022-07-30T02:10:58.108Z,95927.13
2022-07-30T02:13:28.909Z,95936.03
2022-07-30T02:16:31.301Z,95929.16
2022-07-30T02:19:06.097Z,95929.63
2022-07-30T02:21:50.518Z,95926.19
2022-07-30T02:24:22.247Z,95933.22
2022-07-30T02:26:55.087Z,95931.50
2022-07-30T02:29:24.049Z,95934.66
2022-07-30T02:31:52.988Z,95937.44
2022-07-30T02:34:23.928Z,95929.16
2022-07-30T02:36:52.957Z,95931.97
2022-07-30T02:39:22.569Z,95922.25
2022-07-30T02:41:50.567Z,95919.09
2022-07-30T02:44:19.288Z,95921.47
2022-07-30T02:46:48.341Z,95926.31
2022-07-30T02:49:32.008Z,95935.25
2022-07-30T02:52:01.847Z,95942.16
2022-07-30T02:54:31.501Z,95946.09
2022-07-30T02:57:02.260Z,95945.44
2022-07-30T02:59:31.490Z,95941.22
2022-07-30T03:02:01.072Z,95949.84
2022-07-30T03:04:29.834Z,95971.75
2022-07-30T03:06:58.311Z,95986.00
2022-07-30T03:09:26.487Z,95999.03
2022-07-30T03:12:14.948Z,96005.59
2022-07-30T03:14:42.249Z,96006.34
2022-07-30T03:17:15.237Z,96020.13
2022-07-30T03:19:46.447Z,96027.78
2022-07-30T03:22:16.668Z,96042.03
2022-07-30T03:24:46.387Z,96048.75
2022-07-30T03:27:14.668Z,96052.19
2022-07-30T03:29:43.047Z,96051.69
2022-07-30T03:32:12.929Z,96052.00
2022-07-30T03:34:43.776Z,96048.56
2022-07-30T03:37:12.928Z,96055.59
2022-07-30T03:39:41.018Z,96059.84
2022-07-30T03:42:08.356Z,96061.41
2022-07-30T03:44:37.490Z,96063.94
2022-07-30T03:47:07.408Z,96066.09
2022-07-30T03:49:41.267Z,96065.16
2022-07-30T03:52:11.138Z,96069.38
2022-07-30T03:54:39.348Z,96069.06
2022-07-30T03:57:26.291Z,96070.34
2022-07-30T03:59:53.588Z,96066.09
2022-07-30T04:02:21.947Z,96065.31
2022-07-30T04:05:19.927Z,96064.22
2022-07-30T04:07:49.575Z,96067.03
2022-07-30T04:10:20.027Z,96064.16
2022-07-30T04:13:00.427Z,96061.50
2022-07-30T04:16:16.709Z,96057.25
2022-07-30T04:18:20.227Z,96062.28
2022-07-30T04:20:51.148Z,96058.19
2022-07-30T04:23:19.887Z,96058.19
2022-07-30T04:25:47.687Z,96059.28
2022-07-30T04:28:15.176Z,96063.50
2022-07-30T04:30:42.508Z,96064.09
2022-07-30T04:33:09.728Z,96054.75
2022-07-30T04:36:10.042Z,96065.97
2022-07-30T04:38:38.968Z,96067.56
2022-07-30T04:41:06.189Z,96076.03
2022-07-30T04:43:53.555Z,96071.59
2022-07-30T04:46:23.277Z,96078.63
2022-07-30T04:48:52.471Z,96075.19
2022-07-30T04:51:39.594Z,96082.88
2022-07-30T04:54:15.315Z,96075.69
2022-07-30T04:56:53.638Z,96070.06
2022-07-30T04:59:25.296Z,96070.84
2022-07-30T05:01:56.201Z,96079.47
2022-07-30T05:04:25.406Z,96074.16
2022-07-30T05:06:55.028Z,96081.06
2022-07-30T05:09:22.851Z,96078.25
2022-07-30T05:11:54.270Z,96084.88
2022-07-30T05:14:22.188Z,96083.78
2022-07-30T05:16:50.490Z,96083.16
2022-07-30T05:19:19.508Z,96085.81
2022-07-30T05:21:46.873Z,96083.16
2022-07-30T05:24:14.767Z,96081.28
2022-07-30T05:26:49.089Z,96086.00
2022-07-30T05:29:20.051Z,96077.22
2022-07-30T05:32:03.338Z,96078.03
2022-07-30T05:34:34.487Z,96074.25
2022-07-30T05:37:02.094Z,96074.44
2022-07-30T05:39:29.747Z,96069.59
2022-07-30T05:42:15.308Z,96065.84
2022-07-30T05:44:51.689Z,96072.72
2022-07-30T05:47:21.188Z,96073.81
2022-07-30T05:49:50.292Z,96073.19
2022-07-30T05:52:18.116Z,96073.19
2022-07-30T05:54:45.798Z,96076.34
2022-07-30T05:57:39.428Z,96074.75
2022-07-30T06:00:07.968Z,96089.03
2022-07-30T06:02:43.768Z,96083.09
2022-07-30T06:05:20.112Z,96089.94
2022-07-30T06:07:47.408Z,96092.75
2022-07-30T06:10:15.789Z,96099.66
2022-07-30T06:12:42.788Z,96094.00
2022-07-30T06:15:11.355Z,96090.59
2022-07-30T06:17:52.048Z,96092.63
2022-07-30T06:20:42.989Z,96094.97
2022-07-30T06:23:23.233Z,96098.91
2022-07-30T06:26:22.717Z,96092.28
2022-07-30T06:28:50.649Z,96091.34
2022-07-30T06:31:24.328Z,96100.84
2022-07-30T06:33:52.282Z,96099.97
2022-07-30T06:36:20.048Z,96103.72
2022-07-30T06:38:57.953Z,96104.19
2022-07-30T06:41:38.748Z,96099.84
2022-07-30T06:44:05.887Z,96105.59
2022-07-30T06:46:51.724Z,96107.91
2022-07-30T06:49:22.097Z,96101.16
2022-07-30T06:51:49.275Z,96109.84
2022-07-30T06:54:16.735Z,96102.72
2022-07-30T06:56:52.806Z,96117.75
2022-07-30T06:59:19.990Z,96118.84
2022-07-30T07:02:13.216Z,96113.44
2022-07-30T07:04:57.236Z,96113.53
2022-07-30T07:07:40.662Z,96112.47
2022-07-30T07:10:11.195Z,96115.94
2022-07-30T07:12:40.916Z,96119.94
2022-07-30T07:15:08.993Z,96115.44
2022-07-30T07:17:35.886Z,96115.88
2022-07-30T07:20:06.125Z,96120.72
2022-07-30T07:22:41.132Z,96117.03
2022-07-30T07:25:09.407Z,96122.69
2022-07-30T07:27:37.905Z,96123.63
2022-07-30T07:30:07.407Z,96131.50
2022-07-30T07:32:37.599Z,96120.38
2022-07-30T07:35:06.308Z,96122.09
2022-07-30T07:37:36.175Z,96120.06
2022-07-30T07:40:06.415Z,96124.16
2022-07-30T07:42:38.427Z,96120.31
2022-07-30T07:45:07.575Z,96123.19
2022-07-30T07:47:52.072Z,96115.53
2022-07-30T07:50:46.878Z,96120.22
2022-07-30T07:53:22.867Z,96132.69
2022-07-30T07:55:50.015Z,96123.13
2022-07-30T07:58:26.577Z,96118.06
2022-07-30T08:00:57.818Z,96127.31
2022-07-30T08:03:44.875Z,96124.59
2022-07-30T08:06:31.887Z,96126.63
2022-07-30T08:09:17.215Z,96122.44
2022-07-30T08:12:09.145Z,96123.38
2022-07-30T08:14:54.925Z,96124.34
2022-07-30T08:17:54.113Z,96127.34
2022-07-30T08:20:35.889Z,96123.56
2022-07-30T08:23:03.182Z,96129.75
2022-07-30T08:25:30.496Z,96125.09
2022-07-30T08:27:57.576Z,96127.09
2022-07-30T08:30:25.141Z,96119.59
2022-07-30T08:32:52.165Z,96125.09
2022-07-30T08:35:19.326Z,96127.06
2022-07-30T08:37:46.596Z,96128.25
2022-07-30T08:40:15.159Z,96133.94
2022-07-30T08:42:53.186Z,96129.09
2022-07-30T08:45:34.520Z,96131.22
2022-07-30T08:48:16.767Z,96135.00
2022-07-30T08:50:46.346Z,96125.44
2022-07-30T08:53:34.315Z,96137.41
2022-07-30T08:56:07.025Z,96148.44
2022-07-30T08:58:35.581Z,96148.16
2022-07-30T09:01:04.135Z,96147.38
2022-07-30T09:03:31.485Z,96147.72
2022-07-30T09:06:05.025Z,96147.59
2022-07-30T09:08:32.446Z,96143.81
2022-07-30T09:11:00.205Z,96143.66
2022-07-30T09:13:34.715Z,96141.03
2022-07-30T09:16:03.136Z,96149.16
2022-07-30T09:18:42.704Z,96141.47
2022-07-30T09:21:42.895Z,96138.34
2022-07-30T09:24:42.255Z,96137.88
2022-07-30T09:27:46.633Z,96138.66
2022-07-30T09:30:50.676Z,96147.00
2022-07-30T09:33:42.465Z,96139.00
2022-07-30T09:36:33.496Z,96151.38
2022-07-30T09:39:39.436Z,96146.53
2022-07-30T09:42:26.155Z,96150.94
2022-07-30T09:45:13.635Z,96147.63
2022-07-30T09:47:45.436Z,96146.06
2022-07-30T09:50:29.601Z,96149.34
2022-07-30T09:53:09.456Z,96138.66
2022-07-30T09:55:41.926Z,96143.19
2022-07-30T09:58:13.020Z,96139.25
2022-07-30T10:00:59.771Z,96137.06
2022-07-30T10:03:46.498Z,96142.16
2022-07-30T10:06:35.395Z,96137.25
2022-07-30T10:09:37.115Z,96138.03
2022-07-30T10:12:10.464Z,96130.66
2022-07-30T10:14:44.316Z,96132.97
2022-07-30T10:17:15.415Z,96137.50
2022-07-30T10:20:08.803Z,96130.25
2022-07-30T10:22:56.929Z,96123.09
2022-07-30T10:25:36.783Z,96110.94
2022-07-30T10:28:39.561Z,96125.09
2022-07-30T10:31:47.396Z,96119.25
2022-07-30T10:33:54.384Z,96115.78
2022-07-30T10:36:23.897Z,96122.16
2022-07-30T10:38:53.166Z,96120.28
2022-07-30T10:41:42.328Z,96115.25
2022-07-30T10:44:45.967Z,96116.75
2022-07-30T10:47:16.844Z,96118.09
2022-07-30T10:50:10.585Z,96110.19
2022-07-30T10:52:53.763Z,96118.16
2022-07-30T10:55:36.860Z,96119.03
2022-07-30T10:58:14.403Z,96118.94
2022-07-30T11:13:09.233Z,96127.81
2022-07-30T11:15:58.195Z,96122.34
2022-07-30T11:18:29.087Z,96127.50
2022-07-30T11:21:15.195Z,96122.72
2022-07-30T11:23:43.165Z,96120.47
2022-07-30T11:26:14.322Z,96126.69
2022-07-30T11:28:49.157Z,96120.34
2022-07-30T11:31:58.746Z,96122.44
2022-07-30T11:34:28.318Z,96124.03
2022-07-30T11:37:18.741Z,96122.56
2022-07-30T11:39:55.653Z,96121.94
2022-07-30T11:42:26.711Z,96117.47
2022-07-30T11:45:04.734Z,96121.72
2022-07-30T11:47:31.965Z,96121.47
2022-07-30T11:49:58.924Z,96127.69
2022-07-30T11:52:25.965Z,96119.91
2022-07-30T11:54:54.968Z,96128.25
2022-07-30T11:57:39.274Z,96123.03
2022-07-30T12:00:07.255Z,96123.94
2022-07-30T12:02:41.698Z,96126.28
2022-07-30T12:05:08.804Z,96128.06
2022-07-30T12:07:35.744Z,96130.09
2022-07-30T12:10:26.962Z,96129.47
2022-07-30T12:13:07.942Z,96118.72
2022-07-30T12:15:37.347Z,96126.41
2022-07-30T12:18:25.790Z,96115.00
2022-07-30T12:21:06.812Z,96119.97
2022-07-30T12:23:34.054Z,96114.94
2022-07-30T12:26:01.074Z,96116.97
2022-07-30T12:28:30.315Z,96112.81
2022-07-30T12:30:59.155Z,96113.25
2022-07-30T12:33:27.006Z,96116.19
2022-07-30T12:35:56.594Z,96113.97
2022-07-30T12:38:25.644Z,96106.03
2022-07-30T12:40:59.515Z,96110.63
2022-07-30T12:43:49.924Z,96102.25
2022-07-30T12:46:28.177Z,96099.91
2022-07-30T12:48:55.318Z,96097.69
2022-07-30T12:51:25.004Z,96098.81
2022-07-30T12:53:54.093Z,96097.44
2022-07-30T12:56:29.477Z,96100.59
2022-07-30T12:59:00.006Z,96095.00
2022-07-30T13:01:43.472Z,96091.63
2022-07-30T13:04:11.276Z,96081.97
2022-07-30T13:06:40.394Z,96096.19
2022-07-30T13:09:07.664Z,96090.66
2022-07-30T13:11:49.456Z,96085.84
2022-07-30T13:14:17.528Z,96079.63
2022-07-30T13:16:44.864Z,96077.84
2022-07-30T13:19:12.926Z,96079.66
2022-07-30T13:21:49.381Z,96082.56
2022-07-30T13:24:18.597Z,96080.94
2022-07-30T13:26:46.104Z,96076.13
2022-07-30T13:29:13.935Z,96077.44
2022-07-30T13:31:43.178Z,96067.78
2022-07-30T13:34:12.696Z,96057.25
2022-07-30T13:36:40.208Z,96048.34
2022-07-30T13:39:07.445Z,96044.78
2022-07-30T13:41:36.326Z,96042.59
2022-07-30T13:44:04.544Z,96033.25
2022-07-30T13:46:31.634Z,96043.53
2022-07-30T13:48:58.723Z,96041.50
2022-07-30T13:51:26.134Z,96034.63
2022-07-30T13:53:53.141Z,96027.84
2022-07-30T13:56:20.150Z,96024.00
2022-07-30T13:58:48.364Z,96030.56
2022-07-30T14:01:18.061Z,96031.00
2022-07-30T14:03:50.111Z,96027.03
2022-07-30T14:06:19.046Z,96021.31
2022-07-30T14:08:46.303Z,96017.72
2022-07-30T14:11:13.325Z,96022.50
2022-07-30T14:13:40.324Z,96015.75
2022-07-30T14:16:28.547Z,96022.03
2022-07-30T14:18:55.773Z,96022.28
2022-07-30T14:21:22.786Z,96018.59
2022-07-30T14:23:49.832Z,96027.78
2022-07-30T14:26:16.835Z,96027.31
2022-07-30T14:28:43.874Z,96030.75
2022-07-30T14:31:10.985Z,96030.50
2022-07-30T14:33:37.994Z,96032.25
2022-07-30T14:36:05.177Z,96028.88
2022-07-30T14:38:32.125Z,96032.94
2022-07-30T14:40:59.144Z,96035.41
2022-07-30T14:43:28.104Z,96029.56
2022-07-30T14:45:55.133Z,96026.53
2022-07-30T14:48:22.217Z,96034.97
2022-07-30T14:51:12.074Z,96041.03
2022-07-30T14:53:36.273Z,96032.34
2022-07-30T14:56:03.692Z,96027.06
2022-07-30T14:58:30.716Z,96038.28
2022-07-30T15:00:57.683Z,96033.81
2022-07-30T15:03:25.920Z,96027.22
2022-07-30T15:05:53.144Z,96028.50
2022-07-30T15:08:20.684Z,96039.00
2022-07-30T15:10:47.741Z,96018.97
2022-07-30T15:13:15.246Z,96022.34
2022-07-30T15:15:46.068Z,96035.41
2022-07-30T15:18:13.816Z,96033.41
2022-07-30T15:20:40.935Z,96030.19
2022-07-30T15:23:13.079Z,96042.03
2022-07-30T15:25:41.176Z,96034.34
2022-07-30T15:28:08.064Z,96046.53
2022-07-30T15:30:35.384Z,96040.69
2022-07-30T15:33:02.481Z,96046.91
2022-07-30T15:35:29.414Z,96048.28
2022-07-30T15:37:56.421Z,96044.47
2022-07-30T15:40:23.654Z,96046.53
2022-07-30T15:42:51.088Z,96039.72
2022-07-30T15:45:18.726Z,96040.53
2022-07-30T15:47:46.247Z,96032.41
2022-07-30T15:50:13.694Z,96029.94
2022-07-30T15:52:40.764Z,96030.41
2022-07-30T15:55:08.024Z,96023.94
2022-07-30T15:57:35.037Z,96025.16
2022-07-30T16:00:02.534Z,96029.19
2022-07-30T16:02:39.014Z,96026.88
2022-07-30T16:05:09.499Z,96029.53
2022-07-30T16:07:40.284Z,96040.94
2022-07-30T16:10:07.614Z,96045.25
2022-07-30T16:12:34.617Z,96042.72
2022-07-30T16:15:01.625Z,96050.69
2022-07-30T16:17:28.644Z,96049.78
2022-07-30T16:19:55.702Z,96047.31
2022-07-30T16:22:24.365Z,96051.59
2022-07-30T16:24:51.788Z,96055.06
2022-07-30T16:27:19.155Z,96048.00
2022-07-30T16:29:46.132Z,96052.28
2022-07-30T16:32:13.179Z,96051.53
2022-07-30T16:34:40.135Z,96052.16
2022-07-30T16:37:07.154Z,96059.56
2022-07-30T16:39:34.154Z,96051.34
2022-07-30T16:42:01.475Z,96066.19
2022-07-30T16:44:32.202Z,96057.81
2022-07-30T16:46:59.210Z,96066.75
2022-07-30T16:49:26.704Z,96067.88
2022-07-30T16:51:54.374Z,96053.88
2022-07-30T16:54:21.624Z,96069.38
2022-07-30T16:56:52.925Z,96066.78
2022-07-30T16:59:20.814Z,96064.53
2022-07-30T17:01:48.414Z,96067.22
2022-07-30T17:04:15.678Z,96067.34
2022-07-30T17:06:44.575Z,96068.00
2022-07-30T17:09:15.792Z,96074.34
2022-07-30T17:11:48.105Z,96079.66
2022-07-30T17:14:22.377Z,96088.16
2022-07-30T17:16:50.516Z,96095.78
2022-07-30T17:19:17.825Z,96108.75
2022-07-30T17:21:44.797Z,96103.78
2022-07-30T17:24:13.717Z,96107.59
2022-07-30T17:26:43.638Z,96114.78
2022-07-30T17:29:15.688Z,96111.16
2022-07-30T17:31:46.274Z,96114.56
2022-07-30T17:34:15.825Z,96117.38
2022-07-30T17:36:51.831Z,96114.38
2022-07-30T17:40:26.551Z,96119.75
2022-07-30T17:42:07.711Z,96135.34
2022-07-30T17:44:35.696Z,96130.56
2022-07-30T17:47:03.206Z,96132.09
2022-07-30T17:49:30.658Z,96138.38
2022-07-30T17:51:57.856Z,96148.09
2022-07-30T17:54:24.915Z,96147.41
2022-07-30T17:56:52.177Z,96146.28
2022-07-30T17:59:19.544Z,96146.72
2022-07-30T18:01:46.620Z,96149.28
2022-07-30T18:04:13.604Z,96153.25
2022-07-30T18:06:40.767Z,96155.50
2022-07-30T18:09:07.777Z,96161.91
2022-07-30T18:11:34.816Z,96153.78
2022-07-30T18:14:01.836Z,96161.44
2022-07-30T18:16:28.845Z,96163.19
2022-07-30T18:18:55.926Z,96163.84
2022-07-30T18:21:22.957Z,96163.84
2022-07-30T18:23:49.956Z,96174.78
2022-07-30T18:26:17.036Z,96167.75
2022-07-30T18:28:44.062Z,96179.53
2022-07-30T18:31:11.055Z,96172.59
2022-07-30T18:33:38.155Z,96174.03
2022-07-30T18:36:05.385Z,96183.66
2022-07-30T18:38:32.407Z,96172.06
2022-07-30T18:40:59.625Z,96168.78
2022-07-30T18:43:30.715Z,96167.47
2022-07-30T18:45:58.815Z,96176.34
2022-07-30T18:48:25.608Z,96182.28
2022-07-30T18:50:55.656Z,96174.31
2022-07-30T18:53:22.795Z,96181.75
2022-07-30T18:55:49.815Z,96181.13
2022-07-30T18:58:17.236Z,96176.47
2022-07-30T19:00:44.380Z,96173.03
2022-07-30T19:03:17.552Z,96184.09
2022-07-30T19:05:48.206Z,96187.59
2022-07-30T19:08:15.257Z,96180.84
2022-07-30T19:10:42.326Z,96199.09
2022-07-30T19:13:09.735Z,96196.25
2022-07-30T19:15:36.715Z,96193.13
2022-07-30T19:18:03.986Z,96195.81
2022-07-30T19:20:31.095Z,96197.56
2022-07-30T19:23:03.792Z,96189.09
2022-07-30T19:25:33.366Z,96201.78
2022-07-30T19:28:04.575Z,96209.63
2022-07-30T19:30:33.347Z,96215.91
2022-07-30T19:33:05.885Z,96205.69
2022-07-30T19:35:33.523Z,96208.66
2022-07-30T19:38:00.614Z,96200.34
2022-07-30T19:40:28.469Z,96201.41
2022-07-30T19:42:59.985Z,96207.34
2022-07-30T19:45:27.185Z,96205.47
2022-07-30T19:48:14.156Z,96211.28
2022-07-30T19:50:41.875Z,96212.69
2022-07-30T19:53:09.645Z,96214.25
2022-07-30T19:55:37.794Z,96213.91
2022-07-30T19:58:15.849Z,96216.88
2022-07-30T20:00:49.253Z,96206.03
2022-07-30T20:03:34.967Z,96213.25
2022-07-30T20:06:02.131Z,96205.09
2022-07-30T20:08:29.933Z,96198.78
2022-07-30T20:10:59.433Z,96202.97
2022-07-30T20:13:44.020Z,96200.44
2022-07-30T20:16:18.214Z,96193.09
2022-07-30T20:18:46.925Z,96193.06
2022-07-30T20:21:16.346Z,96192.56
2022-07-30T20:23:45.190Z,96198.34
2022-07-30T20:26:14.569Z,96196.91
2022-07-30T20:28:52.165Z,96191.56
2022-07-30T20:31:20.221Z,96192.31
2022-07-30T20:33:50.055Z,96188.81
2022-07-30T20:36:18.372Z,96200.63
2022-07-30T20:38:47.387Z,96197.91
2022-07-30T20:41:14.934Z,96195.16
2022-07-30T20:43:51.849Z,96193.34
2022-07-30T20:46:23.461Z,96195.66
2022-07-30T20:48:52.029Z,96199.03
2022-07-30T20:51:19.244Z,96193.69
2022-07-30T20:53:47.272Z,96204.09
2022-07-30T20:56:16.785Z,96202.03
2022-07-30T20:58:47.426Z,96196.25
2022-07-30T21:01:17.531Z,96204.81
2022-07-30T21:03:47.624Z,96194.78
2022-07-30T21:06:15.325Z,96198.94
2022-07-30T21:08:42.324Z,96192.03
2022-07-30T21:11:09.615Z,96200.44
2022-07-30T21:13:37.166Z,96197.28
2022-07-30T21:16:15.845Z,96194.75
2022-07-30T21:18:49.253Z,96189.72
2022-07-30T21:21:28.922Z,96190.56
2022-07-30T21:24:05.328Z,96189.88
2022-07-30T21:26:32.387Z,96185.06
2022-07-30T21:29:00.934Z,96186.56
2022-07-30T21:31:34.926Z,96186.16
2022-07-30T21:34:15.385Z,96195.22
2022-07-30T21:36:43.313Z,96190.81
2022-07-30T21:39:10.326Z,96178.88
2022-07-30T21:41:41.324Z,96187.44
2022-07-30T21:44:09.837Z,96186.97
2022-07-30T21:46:38.156Z,96192.28
2022-07-30T21:49:07.307Z,96186.28
2022-07-30T21:51:35.046Z,96197.88
2022-07-30T21:54:07.051Z,96197.38
2022-07-30T21:56:34.480Z,96187.75
2022-07-30T21:59:08.936Z,96192.06
2022-07-30T22:01:37.937Z,96200.66
2022-07-30T22:04:24.885Z,96190.91
2022-07-30T22:06:54.510Z,96203.31
2022-07-30T22:09:34.232Z,96200.66
2022-07-30T22:12:06.507Z,96203.47
2022-07-30T22:14:37.263Z,96196.41
2022-07-30T22:17:04.631Z,96200.16
2022-07-30T22:19:32.774Z,96197.78
2022-07-30T22:22:01.913Z,96196.19
2022-07-30T22:24:32.668Z,96185.34
2022-07-30T22:27:11.863Z,96196.16
2022-07-30T22:29:43.372Z,96198.09
2022-07-30T22:32:12.237Z,96179.53
2022-07-30T22:34:39.479Z,96186.09
2022-07-30T22:37:12.635Z,96194.03
2022-07-30T22:42:28.136Z,96197.78
2022-07-30T22:44:55.509Z,96186.38
2022-07-30T22:47:51.176Z,96193.22
2022-07-30T22:50:10.809Z,96197.53
2022-07-30T22:52:50.153Z,96189.09
2022-07-30T22:55:23.983Z,96196.75
2022-07-30T22:57:51.563Z,96193.81
2022-07-30T23:00:28.301Z,96190.44
2022-07-30T23:02:56.481Z,96189.09
2022-07-30T23:05:24.085Z,96180.84
2022-07-30T23:07:51.324Z,96194.47
2022-07-30T23:12:33.097Z,96195.34
2022-07-30T23:12:34.389Z,96186.59
2022-07-30T23:15:53.156Z,96180.47
2022-07-30T23:18:20.114Z,96188.03
2022-07-30T23:20:47.095Z,96177.03
2022-07-30T23:23:14.312Z,96177.56
2022-07-30T23:25:41.313Z,96179.53
2022-07-30T23:28:08.303Z,96176.78
2022-07-30T23:30:35.312Z,96184.56
2022-07-30T23:33:02.954Z,96181.81
2022-07-30T23:35:30.636Z,96183.41
2022-07-30T23:37:57.654Z,96179.84
2022-07-30T23:40:24.852Z,96173.06
2022-07-30T23:42:52.717Z,96182.88
2022-07-30T23:45:20.392Z,96182.88
2022-07-30T23:47:58.018Z,96175.03
2022-07-30T23:50:32.700Z,96178.56
2022-07-30T23:53:01.291Z,96174.09
2022-07-30T23:55:28.978Z,96179.50
2022-07-30T23:57:56.312Z,96164.94
